Time;durP1;ratioP1;P1;durP2;ratioP2;P2;SDS_P1;SDS_P2;PMS_P1;PMS_P2;Temp;Humidity;BMP_temperature;BMP_pressure;BME280_temperature;BME280_humidity;BME280_pressure;Samples;Min_cycle;Max_cycle;Signal;HPM_P1;HPM_P2
2021/04/24 00:01:54;;;;;;;5.75;1.90;;;;;;;23.38;41.09;100497.16;4521484;31;35221;-60
2021/04/24 00:04:22;;;;;;;6.37;2.37;;;;;;;23.36;41.13;100488.34;4528894;31;33849;-59
2021/04/24 00:06:49;;;;;;;5.97;2.15;;;;;;;23.37;41.09;100484.59;4527667;31;33729;-60
2021/04/24 00:09:16;;;;;;;5.15;1.85;;;;;;;23.35;41.12;100487.50;4531552;31;34076;-58
2021/04/24 00:11:43;;;;;;;7.87;1.98;;;;;;;23.36;41.08;100491.06;4531241;31;34587;-60
2021/04/24 00:14:10;;;;;;;5.93;2.10;;;;;;;23.35;41.14;100489.41;4531372;31;33843;-60
2021/04/24 00:16:37;;;;;;;5.45;1.90;;;;;;;23.34;41.13;100491.28;4531432;31;33531;-60
2021/04/24 00:19:05;;;;;;;8.38;1.92;;;;;;;23.34;41.11;100496.72;4518506;31;33143;-61
2021/04/24 00:21:32;;;;;;;6.37;1.85;;;;;;;23.33;41.19;100492.34;4518457;31;34751;-59
2021/04/24 00:23:59;;;;;;;7.95;1.98;;;;;;;23.33;41.16;100486.88;4520408;31;34858;-59
2021/04/24 00:26:26;;;;;;;6.25;1.87;;;;;;;23.33;41.20;100491.50;4515154;31;33922;-60
2021/04/24 00:28:53;;;;;;;5.97;2.70;;;;;;;23.32;41.15;100492.56;4518710;31;33037;-58
2021/04/24 00:31:20;;;;;;;4.43;1.92;;;;;;;23.32;41.15;100495.28;4523834;31;33838;-59
2021/04/24 00:33:48;;;;;;;4.82;1.87;;;;;;;23.31;41.25;100488.13;4522828;31;34799;-59
2021/04/24 00:36:15;;;;;;;5.70;2.17;;;;;;;23.31;41.15;100491.69;4531203;31;34653;-59
2021/04/24 00:38:42;;;;;;;4.43;1.80;;;;;;;23.30;41.19;100483.75;4522209;31;34839;-59
2021/04/24 00:41:11;;;;;;;6.22;2.10;;;;;;;23.28;41.24;100488.56;4524716;31;33523;-57
2021/04/24 00:43:38;;;;;;;8.23;1.95;;;;;;;23.28;41.27;100489.41;4515205;31;34753;-58
2021/04/24 00:46:09;;;;;;;6.70;1.90;;;;;;;23.27;41.34;100487.72;4514940;31;33600;-58
2021/04/24 00:48:37;;;;;;;8.77;1.70;;;;;;;23.26;41.25;100491.47;4515044;31;34243;-59
2021/04/24 00:51:05;;;;;;;4.07;1.77;;;;;;;23.26;41.24;100493.38;4529871;31;33864;-58
2021/04/24 00:53:32;;;;;;;5.22;1.92;;;;;;;23.25;41.33;100491.69;4531487;31;34425;-56
2021/04/24 00:55:59;;;;;;;8.25;2.75;;;;;;;23.25;41.26;100497.16;4524198;31;34802;-59
2021/04/24 00:58:26;;;;;;;5.45;1.70;;;;;;;23.23;41.33;100493.81;4514899;31;33376;-58
2021/04/24 01:00:54;;;;;;;4.90;2.00;;;;;;;23.23;41.28;100499.25;4515236;31;33812;-58
2021/04/24 01:03:21;;;;;;;6.55;1.87;;;;;;;23.22;41.29;100501.09;4517075;31;34802;-55
2021/04/24 01:05:51;;;;;;;4.93;1.80;;;;;;;23.21;41.26;100501.31;4531163;31;33792;-60
2021/04/24 01:08:18;;;;;;;4.37;1.70;;;;;;;23.22;41.31;100495.66;4529690;31;33164;-60
2021/04/24 01:10:45;;;;;;;4.28;1.77;;;;;;;23.21;41.25;100501.31;4530463;31;33775;-60
2021/04/24 01:13:13;;;;;;;5.57;2.08;;;;;;;23.22;41.26;100505.72;4530669;31;34502;-59
2021/04/24 01:15:40;;;;;;;3.67;1.60;;;;;;;23.20;41.40;100503.22;4530803;31;33823;-61
2021/04/24 01:18:08;;;;;;;8.13;2.03;;;;;;;23.20;41.25;100499.66;4528649;31;33323;-59
2021/04/24 01:20:35;;;;;;;4.10;1.80;;;;;;;23.18;41.36;100499.88;4521337;31;33853;-58
2021/04/24 01:23:03;;;;;;;3.20;1.58;;;;;;;23.19;41.28;100498.00;4524463;31;34048;-58
2021/04/24 01:25:30;;;;;;;5.45;1.60;;;;;;;23.18;41.36;100497.16;4516196;31;33885;-59
2021/04/24 01:27:58;;;;;;;6.32;1.80;;;;;;;23.17;41.29;100499.03;4523588;31;33459;-59
2021/04/24 01:30:29;;;;;;;3.25;1.55;;;;;;;23.16;41.35;100505.50;4532736;31;34199;-60
2021/04/24 01:32:57;;;;;;;4.60;1.95;;;;;;;23.16;41.50;100496.50;4532540;31;33652;-59
2021/04/24 01:35:26;;;;;;;4.43;1.67;;;;;;;23.16;41.29;100501.94;4532624;31;33733;-59
2021/04/24 01:37:53;;;;;;;6.43;1.60;;;;;;;23.14;41.41;100499.44;4532764;31;34032;-57
2021/04/24 01:40:21;;;;;;;5.97;1.77;;;;;;;23.15;41.40;100500.28;4532816;31;33812;-58
2021/04/24 01:42:48;;;;;;;7.82;1.70;;;;;;;23.14;41.32;100499.44;4532534;31;35286;-59
2021/04/24 01:45:16;;;;;;;8.55;1.75;;;;;;;23.14;41.46;100498.59;4532838;31;33785;-59
2021/04/24 01:47:45;;;;;;;4.28;2.10;;;;;;;23.12;41.48;100501.53;4532559;31;33309;-58
2021/04/24 01:50:20;;;;;;;5.55;1.70;;;;;;;23.13;41.47;100505.09;4532501;31;34594;-58
2021/04/24 01:52:49;;;;;;;7.50;1.85;;;;;;;23.12;41.48;100506.97;4532636;31;33230;-56
2021/04/24 01:55:21;;;;;;;3.10;1.55;;;;;;;23.12;41.36;100512.41;4532701;31;33813;-59
2021/04/24 01:57:49;;;;;;;4.25;1.70;;;;;;;23.11;41.37;100507.19;4521112;31;33279;-59
2021/04/24 02:00:23;;;;;;;6.78;1.60;;;;;;;23.11;41.44;100502.56;4514866;31;34160;-57
2021/04/24 02:02:51;;;;;;;4.25;1.60;;;;;;;23.12;41.44;100508.84;4516400;31;34816;-58
2021/04/24 02:05:19;;;;;;;5.80;1.50;;;;;;;23.10;41.59;100505.50;4516322;31;33859;-58
2021/04/24 02:07:59;;;;;;;4.10;1.58;;;;;;;23.10;41.58;100517.22;4516470;31;33101;-59
2021/04/24 02:10:29;;;;;;;4.85;1.65;;;;;;;23.11;41.58;100510.72;4516408;31;34698;-60
2021/04/24 02:13:00;;;;;;;6.47;1.77;;;;;;;23.11;41.58;100518.06;4516274;31;34477;-57
2021/04/24 02:15:27;;;;;;;3.53;1.70;;;;;;;23.08;41.60;100519.34;4516287;31;34535;-59
2021/04/24 02:17:54;;;;;;;3.92;1.60;;;;;;;23.09;41.58;100517.44;4531398;31;34081;-57
2021/04/24 02:20:22;;;;;;;5.60;1.60;;;;;;;23.09;41.67;100512.00;4532383;31;33732;-59
2021/04/24 02:22:49;;;;;;;6.72;2.03;;;;;;;23.08;41.64;100513.91;4532499;31;34071;-60
2021/04/24 02:25:17;;;;;;;6.12;1.92;;;;;;;23.07;41.62;100514.91;4528580;31;34922;-60
2021/04/24 02:27:44;;;;;;;3.90;1.70;;;;;;;23.07;41.64;100512.19;4524744;31;33229;-61
2021/04/24 02:30:13;;;;;;;5.43;1.95;;;;;;;23.07;41.44;100514.91;4516333;31;33710;-60
2021/04/24 02:32:40;;;;;;;5.90;1.83;;;;;;;23.06;41.49;100515.13;4515012;31;34911;-57
2021/04/24 02:35:08;;;;;;;7.12;2.00;;;;;;;23.05;41.38;100514.28;4531802;31;33814;-60
2021/04/24 02:37:36;;;;;;;5.62;1.70;;;;;;;23.07;41.51;100508.63;4531775;31;33120;-61
2021/04/24 02:40:12;;;;;;;5.00;1.60;;;;;;;23.05;41.51;100511.56;4532099;31;34914;-60
2021/04/24 02:42:39;;;;;;;4.75;1.80;;;;;;;23.05;41.42;100510.75;4532144;31;34980;-60
2021/04/24 02:45:08;;;;;;;3.10;1.60;;;;;;;23.05;41.50;100506.13;4517009;31;33731;-59
2021/04/24 02:47:35;;;;;;;3.08;1.50;;;;;;;23.03;41.64;100507.38;4516054;31;33330;-61
2021/04/24 02:50:04;;;;;;;6.68;1.60;;;;;;;23.03;41.52;100500.03;4516460;31;33803;-61
2021/04/24 02:52:31;;;;;;;3.95;1.58;;;;;;;23.02;41.83;100509.25;4516145;31;35121;-59
2021/04/24 02:54:59;;;;;;;3.08;1.40;;;;;;;23.02;41.77;100508.41;4516126;31;33520;-61
2021/04/24 02:57:26;;;;;;;4.50;1.73;;;;;;;23.02;41.77;100508.41;4516247;31;33111;-59
2021/04/24 02:59:53;;;;;;;4.85;1.55;;;;;;;23.02;41.71;100511.97;4516178;31;33605;-59
2021/04/24 03:02:20;;;;;;;4.55;1.92;;;;;;;23.02;41.66;100511.97;4515875;31;33725;-60
2021/04/24 03:04:48;;;;;;;3.50;1.42;;;;;;;23.01;41.56;100507.59;4516361;31;33505;-60
2021/04/24 03:07:15;;;;;;;6.72;1.50;;;;;;;23.01;41.66;100501.31;4516171;31;34101;-59
2021/04/24 03:09:42;;;;;;;4.35;1.40;;;;;;;23.01;41.75;100504.03;4515772;31;33846;-61
2021/04/24 03:12:09;;;;;;;4.53;1.55;;;;;;;23.00;41.63;100505.91;4517074;31;33560;-57
2021/04/24 03:14:36;;;;;;;3.47;1.30;;;;;;;23.00;41.57;100500.47;4522310;31;34123;-57
2021/04/24 03:17:03;;;;;;;3.60;1.50;;;;;;;23.00;41.61;100503.19;4524701;31;34574;-59
2021/04/24 03:19:31;;;;;;;3.12;1.30;;;;;;;23.00;41.78;100505.09;4516021;31;34446;-60
2021/04/24 03:21:58;;;;;;;7.07;1.48;;;;;;;23.00;41.66;100496.91;4527463;31;33862;-60
2021/04/24 03:24:25;;;;;;;5.20;1.42;;;;;;;23.00;41.59;100500.47;4531772;31;33823;-61
2021/04/24 03:26:52;;;;;;;5.37;1.55;;;;;;;22.99;41.58;100495.22;4532053;31;34386;-61
2021/04/24 03:29:19;;;;;;;4.18;1.52;;;;;;;22.99;41.51;100512.41;4531833;31;34613;-60
2021/04/24 03:31:46;;;;;;;2.65;1.30;;;;;;;22.99;41.70;100508.81;4531719;31;34904;-60
2021/04/24 03:34:14;;;;;;;7.12;1.70;;;;;;;22.98;41.48;100505.25;4519834;31;33423;-60
2021/04/24 03:36:41;;;;;;;2.20;1.20;;;;;;;22.98;41.63;100520.75;4515979;31;33166;-60
2021/04/24 03:39:09;;;;;;;3.20;1.62;;;;;;;22.97;41.51;100522.66;4515654;31;33920;-61
2021/04/24 03:41:36;;;;;;;4.35;1.55;;;;;;;22.97;41.62;100521.81;4515869;31;33584;-59
2021/04/24 03:44:03;;;;;;;3.92;1.55;;;;;;;22.96;41.51;100520.97;4516152;31;33813;-62
2021/04/24 03:46:30;;;;;;;4.12;1.67;;;;;;;22.95;41.52;100518.47;4515594;31;33399;-61
2021/04/24 03:48:58;;;;;;;5.03;1.33;;;;;;;22.96;41.65;100520.12;4515717;31;34698;-57
2021/04/24 03:51:25;;;;;;;4.62;2.05;;;;;;;22.93;41.77;100526.81;4516031;31;34736;-61
2021/04/24 03:53:52;;;;;;;4.37;1.73;;;;;;;22.96;41.63;100531.03;4515447;31;33812;-61
2021/04/24 03:56:19;;;;;;;3.33;1.40;;;;;;;22.94;41.58;100531.22;4515701;31;34374;-60
2021/04/24 03:58:47;;;;;;;4.53;1.75;;;;;;;22.95;41.61;100532.06;4515866;31;33847;-59
2021/04/24 04:01:14;;;;;;;5.72;1.55;;;;;;;22.95;41.69;100532.06;4516693;31;33850;-58
2021/04/24 04:03:42;;;;;;;2.90;1.30;;;;;;;22.93;41.78;100534.97;4522550;31;34799;-57
2021/04/24 04:06:09;;;;;;;4.25;1.60;;;;;;;22.93;41.73;100537.72;4521290;31;34000;-58
2021/04/24 04:08:36;;;;;;;5.12;1.50;;;;;;;22.91;41.69;100529.75;4520879;31;34943;-60
2021/04/24 04:11:04;;;;;;;3.67;1.75;;;;;;;22.90;41.75;100533.53;4531568;31;35086;-58
2021/04/24 04:13:31;;;;;;;3.47;1.52;;;;;;;22.90;41.81;100533.53;4523784;31;33783;-59
2021/04/24 04:15:58;;;;;;;2.60;1.30;;;;;;;22.90;41.75;100541.69;4515376;31;33254;-57
2021/04/24 04:18:25;;;;;;;6.57;1.70;;;;;;;22.91;41.77;100543.38;4515448;31;34619;-59
2021/04/24 04:20:53;;;;;;;3.47;1.40;;;;;;;22.89;41.81;100540.00;4515426;31;34539;-58
2021/04/24 04:23:25;;;;;;;2.78;1.40;;;;;;;22.89;41.78;100547.31;4523737;31;33863;-59
2021/04/24 04:25:52;;;;;;;3.17;1.67;;;;;;;22.89;41.71;100544.59;4530499;31;33230;-58
2021/04/24 04:28:19;;;;;;;2.92;1.65;;;;;;;22.88;41.75;100538.28;4524844;31;33874;-58
2021/04/24 04:30:47;;;;;;;4.28;1.77;;;;;;;22.89;41.79;100544.59;4515458;31;33842;-58
2021/04/24 04:33:15;;;;;;;4.57;1.30;;;;;;;22.87;41.74;100544.78;4524355;31;33466;-60
2021/04/24 04:35:42;;;;;;;5.15;1.45;;;;;;;22.88;41.80;100545.63;4531409;31;33353;-60
2021/04/24 04:38:09;;;;;;;2.72;1.27;;;;;;;22.86;41.92;100548.56;4531089;31;33824;-58
2021/04/24 04:40:36;;;;;;;5.60;1.48;;;;;;;22.86;41.75;100543.13;4531233;31;34971;-60
2021/04/24 04:43:04;;;;;;;3.45;1.55;;;;;;;22.85;41.78;100544.16;4531214;31;33800;-60
2021/04/24 04:45:31;;;;;;;4.07;1.40;;;;;;;22.86;41.86;100543.13;4520888;31;33273;-60
2021/04/24 04:47:58;;;;;;;3.35;1.42;;;;;;;22.86;41.84;100545.00;4500477;31;33294;-60
2021/04/24 04:50:28;;;;;;;5.00;1.85;;;;;;;22.84;41.85;100545.19;4515109;31;34878;-60
2021/04/24 04:52:55;;;;;;;3.50;1.42;;;;;;;22.85;41.90;100546.03;4514800;31;33888;-61
2021/04/24 04:55:22;;;;;;;4.25;1.30;;;;;;;22.86;41.87;100550.44;4515103;31;34901;-61
2021/04/24 04:57:50;;;;;;;2.47;1.30;;;;;;;22.86;41.78;100550.44;4514969;31;33848;-60
2021/04/24 05:00:18;;;;;;;6.72;1.90;;;;;;;22.87;41.85;100543.94;4516051;31;33984;-59
2021/04/24 05:02:46;;;;;;;2.58;1.30;;;;;;;22.85;41.93;100544.16;4516886;31;33802;-58
2021/04/24 05:05:13;;;;;;;4.22;1.20;;;;;;;22.86;41.89;100545.00;4517059;31;34396;-58
2021/04/24 05:07:41;;;;;;;4.72;1.60;;;;;;;22.86;41.77;100555.87;4518078;31;33881;-56
2021/04/24 05:10:25;;;;;;;3.67;1.37;;;;;;;22.86;41.94;100548.56;4525114;31;33928;-56
2021/04/24 05:12:53;;;;;;;2.60;1.33;;;;;;;22.86;42.02;100550.44;4519903;31;33812;-58
2021/04/24 05:15:20;;;;;;;2.85;1.50;;;;;;;22.85;41.89;100552.31;4518879;31;33248;-57
2021/04/24 05:17:48;;;;;;;4.70;1.42;;;;;;;22.86;42.07;100548.56;4532781;31;33838;-56
2021/04/24 05:20:16;;;;;;;5.85;1.60;;;;;;;22.86;41.99;100553.16;4531797;31;35469;-54
2021/04/24 05:22:44;;;;;;;3.70;1.60;;;;;;;22.85;41.94;100543.31;4522518;31;33734;-57
2021/04/24 05:25:13;;;;;;;4.82;1.45;;;;;;;22.86;41.97;100551.28;4525744;31;33432;-58
2021/04/24 05:27:43;;;;;;;5.55;1.70;;;;;;;22.86;41.88;100559.44;4526137;31;33942;-58
2021/04/24 05:30:11;;;;;;;4.35;1.50;;;;;;;22.87;42.07;100552.13;4532763;31;33931;-59
2021/04/24 05:32:39;;;;;;;2.42;1.30;;;;;;;22.88;41.90;100557.34;4518381;31;33898;-57
2021/04/24 05:35:07;;;;;;;3.83;1.40;;;;;;;22.87;41.88;100552.13;4532872;31;33016;-59
2021/04/24 05:37:34;;;;;;;5.07;1.40;;;;;;;22.88;41.85;100551.91;4532718;31;34475;-59
2021/04/24 05:40:03;;;;;;;3.35;1.25;;;;;;;22.88;41.84;100553.78;4521893;31;33774;-56
2021/04/24 05:42:31;;;;;;;5.72;1.40;;;;;;;22.87;41.95;100547.50;4516700;31;33927;-59
2021/04/24 05:44:58;;;;;;;7.00;1.67;;;;;;;22.89;41.96;100548.16;4516740;31;34333;-59
2021/04/24 05:47:27;;;;;;;5.32;1.23;;;;;;;22.89;41.90;100548.16;4520026;31;34273;-60
2021/04/24 05:49:54;;;;;;;3.83;1.23;;;;;;;22.89;41.91;100547.31;4532749;31;33787;-57
2021/04/24 05:52:21;;;;;;;2.97;1.35;;;;;;;22.89;42.01;100541.87;4526498;31;33712;-58
2021/04/24 05:54:48;;;;;;;2.78;1.15;;;;;;;22.88;41.95;100543.72;4516741;31;33476;-53
2021/04/24 05:57:15;;;;;;;5.57;1.50;;;;;;;22.90;41.94;100549.03;4516657;31;33969;-60
2021/04/24 05:59:42;;;;;;;3.37;1.25;;;;;;;22.91;41.94;100537.09;4516523;31;34795;-61
2021/04/24 06:02:10;;;;;;;5.37;1.40;;;;;;;22.90;41.91;100549.03;4516307;31;33786;-59
2021/04/24 06:04:37;;;;;;;7.68;1.75;;;;;;;22.91;41.86;100550.69;4522025;31;33344;-56
2021/04/24 06:07:04;;;;;;;3.62;1.37;;;;;;;22.91;42.02;100550.69;4521438;31;33560;-58
2021/04/24 06:09:36;;;;;;;5.65;1.50;;;;;;;22.91;41.98;100556.13;4518991;31;34752;-58
2021/04/24 06:12:05;;;;;;;5.97;1.75;;;;;;;22.92;41.95;100558.63;4516454;31;34485;-58
2021/04/24 06:14:32;;;;;;;3.45;1.27;;;;;;;22.90;41.95;100563.47;4525932;31;33354;-59
2021/04/24 06:16:59;;;;;;;6.07;2.10;;;;;;;22.91;41.89;100561.56;4532527;31;34425;-58
2021/04/24 06:19:27;;;;;;;4.03;1.60;;;;;;;22.91;41.95;100561.56;4532683;31;33530;-59
2021/04/24 06:21:54;;;;;;;3.05;1.42;;;;;;;22.92;41.93;100569.53;4532747;31;34529;-59
2021/04/24 06:24:21;;;;;;;2.83;1.40;;;;;;;22.91;41.94;100561.56;4532228;31;33325;-59
2021/04/24 06:26:49;;;;;;;2.45;1.30;;;;;;;22.91;41.99;100561.56;4527234;31;33763;-60
2021/04/24 06:29:16;;;;;;;4.85;1.60;;;;;;;22.90;41.92;100559.91;4516395;31;34641;-59
2021/04/24 06:31:43;;;;;;;4.78;1.58;;;;;;;22.92;41.82;100557.81;4520562;31;34176;-60
2021/04/24 06:34:10;;;;;;;4.35;2.05;;;;;;;22.92;41.89;100555.09;4523751;31;33432;-59
2021/04/24 06:36:37;;;;;;;2.65;1.23;;;;;;;22.90;42.01;100555.31;4528302;31;33926;-60
2021/04/24 06:39:06;;;;;;;2.67;1.27;;;;;;;22.91;42.15;100558.84;4532217;31;33689;-57
2021/04/24 06:41:34;;;;;;;3.67;1.60;;;;;;;22.90;42.09;100565.34;4517851;31;34316;-58
2021/04/24 06:44:01;;;;;;;2.35;1.30;;;;;;;22.90;42.06;100563.47;4525687;31;33396;-57
2021/04/24 06:46:28;;;;;;;3.70;1.70;;;;;;;22.90;42.01;100560.75;4513887;31;34712;-56
2021/04/24 06:48:55;;;;;;;2.28;1.10;;;;;;;22.90;42.01;100547.12;4521557;31;33965;-61
2021/04/24 06:51:22;;;;;;;11.05;3.00;;;;;;;22.90;41.92;100552.56;4516376;31;34535;-59
2021/04/24 06:53:53;;;;;;;11.02;2.83;;;;;;;22.93;38.57;100548.59;4530261;31;33456;-57
2021/04/24 06:56:21;;;;;;;7.72;2.20;;;;;;;22.87;38.22;100550.22;4532359;31;33829;-59
2021/04/24 06:58:49;;;;;;;8.48;2.78;;;;;;;22.87;40.04;100549.37;4532232;31;33841;-59
2021/04/24 07:01:16;;;;;;;15.32;2.62;;;;;;;22.88;39.28;100556.50;4532143;31;34433;-59
2021/04/24 07:03:44;;;;;;;21.92;3.22;;;;;;;22.90;39.37;100554.47;4532230;31;33392;-60
2021/04/24 07:06:13;;;;;;;32.13;4.75;;;;;;;22.96;39.36;100544.63;4532209;31;34776;-59
2021/04/24 07:08:40;;;;;;;22.20;3.50;;;;;;;23.06;39.23;100547.78;4532216;31;35361;-59
2021/04/24 07:11:08;;;;;;;25.15;3.80;;;;;;;23.17;39.19;100539.00;4532208;31;34380;-60
2021/04/24 07:13:36;;;;;;;12.13;3.10;;;;;;;23.27;39.15;100544.91;4531975;31;34085;-60
2021/04/24 07:16:05;;;;;;;15.23;3.10;;;;;;;23.35;39.15;100536.53;4532058;31;34641;-59
2021/04/24 07:18:33;;;;;;;19.52;3.03;;;;;;;23.42;39.09;100523.75;4532059;31;34830;-59
2021/04/24 07:21:00;;;;;;;12.57;2.87;;;;;;;23.50;39.04;100533.62;4532075;31;33757;-59
2021/04/24 07:23:32;;;;;;;22.08;3.58;;;;;;;23.55;39.00;100533.81;4527389;31;33479;-61
2021/04/24 07:26:00;;;;;;;19.73;2.90;;;;;;;23.60;38.97;100528.59;4522238;31;33588;-60
2021/04/24 07:28:27;;;;;;;15.70;2.83;;;;;;;23.65;38.94;100539.72;4516437;31;33911;-61
2021/04/24 07:30:54;;;;;;;12.57;2.50;;;;;;;23.72;38.90;100536.97;4527620;31;34754;-59
2021/04/24 07:33:23;;;;;;;16.05;3.70;;;;;;;23.81;38.84;100538.44;4522302;31;33495;-60
2021/04/24 07:35:51;;;;;;;21.02;3.75;;;;;;;23.92;38.71;100536.94;4522851;31;33865;-59
2021/04/24 07:38:18;;;;;;;22.05;3.60;;;;;;;24.02;38.55;100540.09;4532030;31;33816;-60
2021/04/24 07:40:46;;;;;;;19.77;3.97;;;;;;;24.14;38.41;100532.94;4532047;31;33778;-60
2021/04/24 07:43:13;;;;;;;22.55;3.58;;;;;;;24.26;38.27;100532.28;4515910;31;34393;-59
2021/04/24 07:45:41;;;;;;;15.27;3.10;;;;;;;24.37;38.16;100531.63;4515868;31;34642;-60
2021/04/24 07:48:09;;;;;;;19.08;3.35;;;;;;;24.49;38.02;100538.09;4516027;31;34919;-58
2021/04/24 07:50:36;;;;;;;11.12;2.92;;;;;;;24.63;37.87;100541.63;4515807;31;33790;-59
2021/04/24 07:53:04;;;;;;;15.75;3.55;;;;;;;24.75;37.72;100536.31;4499135;31;34201;-59
2021/04/24 07:55:31;;;;;;;22.87;3.37;;;;;;;24.86;37.54;100533.72;4515915;31;34597;-59
2021/04/24 07:57:58;;;;;;;22.00;3.53;;;;;;;24.96;37.08;100529.69;4515760;31;34721;-59
2021/04/24 08:00:25;;;;;;;15.77;3.87;;;;;;;25.07;36.91;100537.19;4515762;31;33939;-58
2021/04/24 08:02:53;;;;;;;20.05;3.42;;;;;;;25.16;36.86;100533.16;4515638;31;33304;-60
2021/04/24 08:05:20;;;;;;;17.85;2.90;;;;;;;25.23;36.81;100538.56;4515433;31;33595;-60
2021/04/24 08:07:59;;;;;;;21.92;3.25;;;;;;;25.27;36.75;100534.34;4525177;31;33845;-60
2021/04/24 08:10:27;;;;;;;12.82;3.45;;;;;;;25.30;36.74;100533.91;4515735;31;33701;-61
2021/04/24 08:12:54;;;;;;;14.40;3.10;;;;;;;25.32;36.71;100537.22;4521181;31;34292;-58
2021/04/24 08:15:21;;;;;;;13.85;3.20;;;;;;;25.33;35.53;100533.47;4531775;31;33824;-62
2021/04/24 08:17:48;;;;;;;11.77;3.10;;;;;;;25.31;35.32;100528.22;4531734;31;33830;-56
2021/04/24 08:20:15;;;;;;;17.37;3.72;;;;;;;25.29;34.09;100530.34;4531440;31;33871;-61
2021/04/24 08:22:43;;;;;;;16.35;3.25;;;;;;;25.27;34.55;100537.06;4531764;31;33029;-62
2021/04/24 08:25:10;;;;;;;21.80;3.47;;;;;;;25.25;35.40;100528.28;4525273;31;33801;-59
2021/04/24 08:27:38;;;;;;;17.45;4.22;;;;;;;25.22;35.15;100531.44;4515531;31;34445;-61
2021/04/24 08:30:06;;;;;;;17.42;4.32;;;;;;;25.17;35.06;100535.66;4515612;31;33803;-62
2021/04/24 08:32:33;;;;;;;19.48;3.28;;;;;;;25.10;33.09;100531.31;4515456;31;33433;-61
2021/04/24 08:35:01;;;;;;;18.92;3.30;;;;;;;25.07;34.25;100535.31;4513698;31;33840;-62
2021/04/24 08:37:28;;;;;;;13.65;3.17;;;;;;;25.02;34.55;100532.37;4515277;31;33885;-62
2021/04/24 08:39:55;;;;;;;17.20;3.30;;;;;;;24.98;34.67;100531.13;4515502;31;33474;-59
2021/04/24 08:42:22;;;;;;;10.82;2.97;;;;;;;24.92;34.04;100527.41;4515353;31;33382;-61
2021/04/24 08:44:50;;;;;;;12.88;3.28;;;;;;;24.88;34.46;100528.03;4515242;31;33959;-55
2021/04/24 08:47:20;;;;;;;11.57;3.25;;;;;;;24.83;34.73;100530.59;4515071;31;33821;-61
2021/04/24 08:49:47;;;;;;;13.95;3.47;;;;;;;24.78;34.01;100524.97;4501072;31;33849;-61
2021/04/24 08:52:14;;;;;;;12.32;3.00;;;;;;;24.75;34.04;100525.37;4515270;31;34195;-59
2021/04/24 08:54:42;;;;;;;17.48;3.75;;;;;;;24.67;33.92;100529.22;4498198;31;34844;-61
2021/04/24 08:57:09;;;;;;;10.80;3.08;;;;;;;24.62;34.06;100526.28;4531091;31;33837;-62
2021/04/24 08:59:37;;;;;;;12.60;3.87;;;;;;;24.56;33.76;100528.00;4516375;31;34053;-61
2021/04/24 09:02:04;;;;;;;13.25;3.83;;;;;;;24.52;33.47;100524.00;4526959;31;33462;-62
2021/04/24 09:04:31;;;;;;;12.82;3.15;;;;;;;24.46;33.12;100527.63;4518634;31;34005;-59
2021/04/24 09:06:58;;;;;;;13.40;3.60;;;;;;;24.40;32.37;100517.56;4517347;31;33990;-61
2021/04/24 09:09:27;;;;;;;15.75;3.37;;;;;;;24.37;32.83;100512.53;4521609;31;33846;-61
2021/04/24 09:12:01;;;;;;;15.23;2.95;;;;;;;24.36;32.92;100513.56;4514787;31;33319;-59
2021/04/24 09:14:29;;;;;;;12.77;3.95;;;;;;;24.32;33.34;100512.31;4530218;31;34623;-62
2021/04/24 09:16:56;;;;;;;15.13;3.45;;;;;;;24.28;33.25;100506.44;4530825;31;33546;-61
2021/04/24 09:19:31;;;;;;;10.43;3.12;;;;;;;24.25;33.42;100503.31;4516311;31;34263;-56
2021/04/24 09:22:11;;;;;;;12.35;3.53;;;;;;;24.22;33.99;100504.59;4530614;31;33441;-61
2021/04/24 09:24:38;;;;;;;8.50;3.53;;;;;;;24.19;34.16;100503.12;4527897;31;34840;-61
2021/04/24 09:27:07;;;;;;;12.10;3.47;;;;;;;24.16;34.27;100500.84;4514707;31;33511;-61
2021/04/24 09:29:50;;;;;;;9.68;3.50;;;;;;;24.09;33.46;100502.75;4514755;31;33787;-62
2021/04/24 09:32:19;;;;;;;13.38;3.65;;;;;;;24.07;33.19;100496.69;4514662;31;33276;-61
2021/04/24 09:34:51;;;;;;;10.27;3.47;;;;;;;24.00;33.53;100495.00;4514545;31;33887;-59
2021/04/24 09:37:20;;;;;;;6.95;2.90;;;;;;;23.99;33.06;100493.34;4514898;31;33881;-62
2021/04/24 09:39:51;;;;;;;9.90;2.85;;;;;;;23.97;33.33;100484.53;4514569;31;35051;-61
2021/04/24 09:42:40;;;;;;;8.10;3.30;;;;;;;23.96;33.20;100485.56;4514433;31;34078;-61
2021/04/24 09:45:25;;;;;;;8.82;3.10;;;;;;;23.95;33.90;100482.03;4514985;31;33962;-61
2021/04/24 09:47:53;;;;;;;11.05;3.22;;;;;;;23.90;33.79;100479.09;4516877;31;33175;-61
2021/04/24 09:50:34;;;;;;;10.07;2.95;;;;;;;23.85;33.50;100477.00;4516775;31;33636;-60
2021/04/24 09:53:21;;;;;;;10.68;2.97;;;;;;;23.83;33.03;100475.56;4516695;31;33456;-62
2021/04/24 09:55:49;;;;;;;13.43;3.47;;;;;;;23.82;33.28;100469.25;4516667;31;34523;-60
2021/04/24 09:58:33;;;;;;;10.02;3.45;;;;;;;23.74;33.70;100464.06;4516703;31;33808;-62
2021/04/24 10:01:25;;;;;;;7.40;2.78;;;;;;;23.74;33.67;100455.88;4517742;31;33817;-61
2021/04/24 10:03:53;;;;;;;8.65;3.22;;;;;;;23.74;33.61;100444.97;4532544;31;32989;-61
2021/04/24 10:06:31;;;;;;;8.70;3.55;;;;;;;23.71;33.79;100447.28;4532520;31;34458;-60
2021/04/24 10:09:17;;;;;;;10.10;3.65;;;;;;;23.70;33.45;100438.28;4532542;31;34667;-61
2021/04/24 10:12:02;;;;;;;8.23;3.08;;;;;;;23.71;33.23;100442.66;4532440;31;33970;-62
2021/04/24 10:14:33;;;;;;;9.57;3.53;;;;;;;23.65;33.77;100438.91;4532499;31;33705;-61
2021/04/24 10:17:16;;;;;;;12.20;3.55;;;;;;;23.63;32.78;100435.50;4532289;31;34043;-61
2021/04/24 10:19:43;;;;;;;16.42;4.18;;;;;;;23.62;32.37;100430.28;4532464;31;33788;-61
2021/04/24 10:22:12;;;;;;;8.82;3.87;;;;;;;23.61;32.32;100429.47;4517719;31;33887;-61
2021/04/24 10:24:40;;;;;;;12.77;3.58;;;;;;;23.60;32.38;100429.69;4532407;31;33147;-61
2021/04/24 10:27:08;;;;;;;13.25;4.70;;;;;;;23.61;32.30;100420.44;4531986;31;34465;-58
2021/04/24 10:29:35;;;;;;;12.65;3.53;;;;;;;23.59;32.52;100417.91;4532040;31;33801;-59
2021/04/24 10:32:02;;;;;;;9.32;3.58;;;;;;;23.59;32.97;100412.47;4517828;31;33868;-61
2021/04/24 10:34:30;;;;;;;8.00;3.50;;;;;;;23.57;33.19;100411.84;4532209;31;33282;-61
2021/04/24 10:36:57;;;;;;;10.55;3.58;;;;;;;23.57;33.29;100411.03;4532052;31;33839;-62
2021/04/24 10:39:32;;;;;;;15.70;4.20;;;;;;;23.57;33.49;100413.75;4532230;31;33895;-61
2021/04/24 10:42:21;;;;;;;7.90;3.53;;;;;;;23.56;33.76;100396.56;4532078;31;34182;-59
2021/04/24 10:44:58;;;;;;;7.80;3.10;;;;;;;23.56;33.98;100406.63;4532190;31;33720;-61
2021/04/24 10:47:38;;;;;;;10.63;3.37;;;;;;;23.54;34.20;100404.09;4517317;31;35001;-60
2021/04/24 10:50:07;;;;;;;8.25;3.25;;;;;;;23.54;34.33;100400.53;4532210;31;33932;-60
2021/04/24 10:52:34;;;;;;;14.15;3.17;;;;;;;23.52;34.47;100395.31;4532096;31;33520;-60
2021/04/24 10:55:13;;;;;;;9.85;2.97;;;;;;;23.52;34.48;100394.47;4531938;31;34133;-60
2021/04/24 10:57:48;;;;;;;9.52;3.15;;;;;;;23.52;34.52;100391.75;4531142;31;33842;-58
2021/04/24 11:00:20;;;;;;;7.60;3.00;;;;;;;23.49;34.71;100384.84;4531951;31;34714;-60
2021/04/24 11:02:47;;;;;;;9.30;3.15;;;;;;;23.48;34.87;100385.91;4518647;31;34949;-61
2021/04/24 11:05:45;;;;;;;7.47;2.87;;;;;;;23.48;34.85;100385.06;4516013;31;33540;-60
2021/04/24 11:08:20;;;;;;;6.70;3.10;;;;;;;23.49;34.95;100381.28;4515971;31;33781;-60
2021/04/24 11:11:03;;;;;;;6.60;3.03;;;;;;;23.47;35.19;100386.13;4515878;31;33707;-61
2021/04/24 11:13:48;;;;;;;6.07;3.00;;;;;;;23.45;35.22;100378.12;4516054;31;33737;-60
2021/04/24 11:16:16;;;;;;;7.10;3.03;;;;;;;23.44;35.32;100371.03;4501619;31;33281;-60
2021/04/24 11:18:45;;;;;;;6.72;2.97;;;;;;;23.42;35.54;100371.25;4516043;31;33809;-59
2021/04/24 11:21:29;;;;;;;9.40;3.10;;;;;;;23.41;35.53;100358.69;4501657;31;32669;-60
2021/04/24 11:23:58;;;;;;;6.47;2.72;;;;;;;23.42;35.47;100354.91;4515935;31;33729;-61
2021/04/24 11:26:31;;;;;;;6.53;2.92;;;;;;;23.39;35.63;100355.31;4515863;31;33044;-61
2021/04/24 11:29:11;;;;;;;9.23;2.92;;;;;;;23.40;35.58;100350.72;4515956;31;33532;-60
2021/04/24 11:31:52;;;;;;;8.23;2.67;;;;;;;23.39;35.76;100354.50;4515791;31;34642;-60